Time;durP1;ratioP1;P1;durP2;ratioP2;P2;SDS_P1;SDS_P2;PMS_P1;PMS_P2;Temp;Humidity;BMP_temperature;BMP_pressure;BME280_temperature;BME280_humidity;BME280_pressure;Samples;Min_cycle;Max_cycle;Signal;HPM_P1;HPM_P2
2021/12/13 00:02:20;;;;;;;465.67;50.50;;;8.40;98.30;;;;;;5101441;23;20995;-85
2021/12/13 00:04:50;;;;;;;420.50;47.07;;;8.40;98.30;;;;;;5101286;23;20422;-84
2021/12/13 00:07:04;;;;;;;410.90;46.93;;;8.40;98.30;;;;;;5111902;23;20419;-88
2021/12/13 00:09:12;;;;;;;574.63;73.07;;;8.50;98.30;;;;;;5100702;23;20431;-88
2021/12/13 00:11:19;;;;;;;335.03;40.43;;;8.50;98.30;;;;;;5108626;23;20411;-87
2021/12/13 00:13:27;;;;;;;405.77;49.33;;;8.40;98.30;;;;;;5098644;23;20453;-87
2021/12/13 00:15:52;;;;;;;430.90;48.17;;;8.40;98.30;;;;;;5100230;23;20497;-84
2021/12/13 00:17:55;;;;;;;377.53;47.53;;;8.40;98.30;;;;;;5100818;23;20431;-88
2021/12/13 00:20:06;;;;;;;380.73;45.63;;;8.50;98.30;;;;;;5100785;23;20445;-86
2021/12/13 00:22:19;;;;;;;373.60;45.10;;;8.50;98.30;;;;;;5102474;23;20450;-87
2021/12/13 00:24:28;;;;;;;406.90;51.87;;;8.50;98.30;;;;;;5104386;23;20816;-83
2021/12/13 00:26:35;;;;;;;423.07;55.47;;;8.50;98.30;;;;;;5105870;23;20415;-84
2021/12/13 00:28:41;;;;;;;416.53;48.20;;;8.50;98.30;;;;;;5104768;23;20452;-86
2021/12/13 00:33:39;;;;;;;466.60;62.10;;;8.40;98.30;;;;;;5097163;23;20956;-87
2021/12/13 00:35:47;;;;;;;325.73;41.67;;;8.40;98.30;;;;;;5100043;23;20423;-88
2021/12/13 00:37:57;;;;;;;268.87;38.77;;;8.50;98.30;;;;;;5101623;23;20444;-85
2021/12/13 00:40:08;;;;;;;349.10;45.30;;;8.50;98.30;;;;;;5101417;23;20462;-87
2021/12/13 00:42:22;;;;;;;364.83;46.20;;;8.50;98.30;;;;;;5104417;23;20455;-85
2021/12/13 00:44:35;;;;;;;347.67;47.57;;;8.40;98.30;;;;;;5106680;23;20412;-83
2021/12/13 00:46:43;;;;;;;302.77;42.03;;;8.50;98.30;;;;;;5106338;23;21218;-84
2021/12/13 00:48:56;;;;;;;371.30;46.77;;;8.50;98.30;;;;;;5105090;23;20743;-84
2021/12/13 00:51:05;;;;;;;308.93;42.10;;;8.50;98.30;;;;;;5105697;23;20438;-85
2021/12/13 00:53:11;;;;;;;268.13;41.87;;;8.50;98.30;;;;;;5104487;23;20972;-85
2021/12/13 00:55:37;;;;;;;233.80;35.10;;;8.50;98.30;;;;;;5112746;23;20501;-85
2021/12/13 00:57:45;;;;;;;355.90;47.40;;;8.50;98.30;;;;;;5104658;23;20434;-86
2021/12/13 00:59:55;;;;;;;327.43;41.07;;;8.50;98.30;;;;;;5103082;23;20521;-86
2021/12/13 01:02:04;;;;;;;331.43;53.83;;;8.50;98.30;;;;;;5105057;23;20838;-86
2021/12/13 01:04:14;;;;;;;262.70;37.40;;;8.50;98.30;;;;;;5113279;23;20452;-85
2021/12/13 01:06:55;;;;;;;310.60;38.80;;;8.50;98.30;;;;;;5104047;23;20422;-84
2021/12/13 01:09:34;;;;;;;203.50;30.97;;;8.50;98.30;;;;;;5104179;23;20485;-85
2021/12/13 01:11:48;;;;;;;338.80;43.13;;;8.50;98.30;;;;;;5100567;23;20457;-85
2021/12/13 01:14:22;;;;;;;208.33;35.43;;;8.60;98.30;;;;;;5112111;23;20536;-84
2021/12/13 01:17:01;;;;;;;257.70;36.70;;;8.50;98.30;;;;;;5111893;23;20470;-85
2021/12/13 01:19:27;;;;;;;240.70;33.33;;;8.50;98.30;;;;;;5103027;23;20470;-84
2021/12/13 01:21:54;;;;;;;218.50;32.00;;;8.50;98.30;;;;;;5101872;23;20903;-85
2021/12/13 01:24:05;;;;;;;220.53;30.70;;;8.50;98.30;;;;;;5103039;23;20418;-85
2021/12/13 01:28:44;;;;;;;194.30;28.67;;;8.50;98.30;;;;;;5103605;23;20604;-85
2021/12/13 01:30:52;;;;;;;138.17;23.27;;;8.50;98.30;;;;;;5102472;23;20502;-86
2021/12/13 01:33:00;;;;;;;166.47;27.97;;;8.60;98.30;;;;;;5109723;23;20464;-85
2021/12/13 01:35:14;;;;;;;120.30;24.00;;;8.60;98.30;;;;;;5105347;23;20437;-85
2021/12/13 01:37:21;;;;;;;187.07;28.80;;;8.50;98.30;;;;;;5080438;23;20419;-84
2021/12/13 01:39:30;;;;;;;140.87;28.00;;;8.50;98.30;;;;;;5105037;23;20433;-85
2021/12/13 01:41:37;;;;;;;228.97;32.00;;;8.60;98.30;;;;;;5104446;23;20442;-87
2021/12/13 01:44:00;;;;;;;187.20;28.63;;;8.60;98.30;;;;;;5110512;23;20440;-84
2021/12/13 01:46:19;;;;;;;162.73;26.37;;;8.60;98.30;;;;;;5103034;23;20722;-85
2021/12/13 01:48:42;;;;;;;232.50;29.80;;;8.60;98.30;;;;;;5103477;23;20411;-84
2021/12/13 01:51:05;;;;;;;199.37;29.20;;;8.60;98.30;;;;;;5100012;23;20962;-86
2021/12/13 01:53:09;;;;;;;201.53;30.03;;;8.60;98.30;;;;;;5102355;23;20504;-84
2021/12/13 01:55:40;;;;;;;129.63;25.00;;;8.60;98.30;;;;;;5103788;23;20442;-86
2021/12/13 01:57:54;;;;;;;118.47;21.50;;;8.60;98.30;;;;;;5101930;23;20466;-85
2021/12/13 02:00:08;;;;;;;63.07;16.07;;;8.60;98.30;;;;;;5101697;23;20415;-86
2021/12/13 02:02:21;;;;;;;124.67;22.27;;;8.60;98.30;;;;;;5102025;23;20819;-85
2021/12/13 02:04:25;;;;;;;126.03;23.10;;;8.60;98.30;;;;;;5103584;23;20419;-86
2021/12/13 02:06:41;;;;;;;216.17;27.63;;;8.60;98.30;;;;;;5103547;23;20457;-86
2021/12/13 02:08:53;;;;;;;119.40;22.57;;;8.70;98.30;;;;;;5104468;23;20422;-84
2021/12/13 02:10:57;;;;;;;74.43;16.57;;;8.70;98.30;;;;;;5105568;23;20433;-84
2021/12/13 02:13:09;;;;;;;91.43;20.10;;;8.70;98.30;;;;;;5104995;23;20463;-85
2021/12/13 02:17:39;;;;;;;113.60;19.50;;;8.70;98.30;;;;;;5099693;23;20431;-88
2021/12/13 02:19:47;;;;;;;97.23;21.23;;;8.70;98.30;;;;;;5106661;23;20992;-88
2021/12/13 02:22:08;;;;;;;188.20;25.97;;;8.80;98.30;;;;;;5097747;23;20779;-86
2021/12/13 02:24:13;;;;;;;119.97;19.03;;;8.80;98.30;;;;;;5106453;23;20419;-87
2021/12/13 02:26:16;;;;;;;136.47;26.33;;;8.80;98.30;;;;;;5104642;23;20414;-87
2021/12/13 02:28:22;;;;;;;85.40;18.53;;;8.80;98.30;;;;;;5094123;23;20468;-86
2021/12/13 02:30:36;;;;;;;145.03;22.23;;;8.80;98.30;;;;;;5094933;23;20474;-86
2021/12/13 02:32:41;;;;;;;115.43;20.10;;;8.90;98.30;;;;;;5095387;23;20449;-87
2021/12/13 02:34:44;;;;;;;167.07;25.50;;;8.90;98.30;;;;;;5096994;23;20465;-87
2021/12/13 02:36:52;;;;;;;63.77;17.57;;;8.80;98.30;;;;;;5100583;23;20434;-86
2021/12/13 02:41:29;;;;;;;106.63;20.53;;;8.90;98.30;;;;;;5098014;23;20426;-88
2021/12/13 02:43:35;;;;;;;117.03;19.83;;;8.90;98.30;;;;;;5099515;23;20437;-87
2021/12/13 02:45:45;;;;;;;97.77;18.37;;;8.90;98.30;;;;;;5099962;23;20438;-85
2021/12/13 02:47:54;;;;;;;62.27;14.90;;;8.90;98.30;;;;;;5100073;23;20737;-87
2021/12/13 02:49:57;;;;;;;62.07;16.53;;;8.90;98.30;;;;;;5107355;23;20426;-87
2021/12/13 02:52:06;;;;;;;44.30;13.90;;;8.90;98.30;;;;;;5107193;23;20444;-85
2021/12/13 02:54:14;;;;;;;54.83;12.40;;;8.90;98.30;;;;;;5097010;23;20413;-87
2021/12/13 02:56:18;;;;;;;31.00;11.20;;;9.00;98.30;;;;;;5099362;23;20731;-88
2021/12/13 02:58:26;;;;;;;43.60;11.47;;;9.00;98.30;;;;;;5099549;23;20430;-86
2021/12/13 03:00:38;;;;;;;29.63;9.53;;;9.00;98.30;;;;;;5100164;23;20430;-85
2021/12/13 03:02:46;;;;;;;28.63;10.20;;;9.00;98.30;;;;;;5103755;23;20493;-86
2021/12/13 03:04:51;;;;;;;28.57;10.50;;;9.10;98.30;;;;;;5101964;23;20447;-87
2021/12/13 03:06:58;;;;;;;26.33;9.87;;;9.00;98.30;;;;;;5104041;23;20795;-87
2021/12/13 03:09:08;;;;;;;30.83;9.50;;;9.10;98.30;;;;;;5101000;23;20470;-87
2021/12/13 03:11:28;;;;;;;31.10;10.33;;;9.00;98.30;;;;;;5102136;23;20506;-88
2021/12/13 03:13:33;;;;;;;27.60;8.60;;;9.00;98.30;;;;;;5099250;23;20488;-86
2021/12/13 03:15:37;;;;;;;37.13;12.20;;;9.10;98.30;;;;;;5101752;23;20434;-88
2021/12/13 03:17:47;;;;;;;34.47;10.27;;;9.10;98.30;;;;;;5100632;23;20469;-87
2021/12/13 03:20:22;;;;;;;;;;;;;;;;;;;;;
2021/12/13 03:23:02;;;;;;;106.93;17.27;;;9.10;98.30;;;;;;5100650;23;20812;-86
2021/12/13 03:28:19;;;;;;;41.00;11.30;;;9.20;98.30;;;;;;5076830;23;20441;-86
2021/12/13 03:30:29;;;;;;;26.10;9.37;;;9.20;98.30;;;;;;5104718;23;20876;-86
2021/12/13 03:32:39;;;;;;;26.90;10.50;;;9.20;98.30;;;;;;5104636;23;20501;-86
2021/12/13 03:35:09;;;;;;;40.13;11.80;;;9.30;98.30;;;;;;5112864;23;20399;-86
2021/12/13 03:37:20;;;;;;;41.83;11.03;;;9.20;98.30;;;;;;5103575;23;20427;-86
2021/12/13 03:39:28;;;;;;;50.43;11.23;;;9.20;98.30;;;;;;5103668;23;20431;-85
2021/12/13 03:41:34;;;;;;;59.27;14.40;;;9.20;98.30;;;;;;5104329;23;20465;-86
2021/12/13 03:44:10;;;;;;;28.60;9.10;;;9.30;98.30;;;;;;5103780;23;20831;-84
2021/12/13 03:46:18;;;;;;;36.07;9.87;;;9.30;98.30;;;;;;5092894;23;20422;-88
2021/12/13 03:48:29;;;;;;;30.60;10.17;;;9.30;98.30;;;;;;5102763;23;20947;-84
2021/12/13 03:50:43;;;;;;;29.87;10.90;;;9.30;98.30;;;;;;5106484;23;20443;-90
2021/12/13 03:53:04;;;;;;;40.20;12.80;;;9.30;98.30;;;;;;5101841;23;20505;-83
2021/12/13 03:55:11;;;;;;;29.57;10.10;;;9.30;98.30;;;;;;5101795;23;20442;-88
2021/12/13 03:57:28;;;;;;;32.63;10.37;;;9.30;98.30;;;;;;5104545;23;20458;-87
2021/12/13 03:59:42;;;;;;;27.80;11.33;;;9.40;98.30;;;;;;5105275;23;20411;-85
2021/12/13 04:01:52;;;;;;;33.93;10.50;;;9.40;98.30;;;;;;5103111;23;20516;-87
2021/12/13 04:04:02;;;;;;;39.40;12.90;;;9.40;98.30;;;;;;5113036;23;20431;-87
2021/12/13 04:06:22;;;;;;;35.37;12.37;;;9.40;98.30;;;;;;5113774;23;20423;-86
2021/12/13 04:08:29;;;;;;;36.10;12.33;;;9.40;98.30;;;;;;5111874;23;20423;-85
2021/12/13 04:10:39;;;;;;;44.77;13.63;;;9.40;98.30;;;;;;5104929;23;20438;-88
2021/12/13 04:13:11;;;;;;;34.77;12.20;;;9.50;98.30;;;;;;5105557;23;20455;-88
2021/12/13 04:16:00;;;;;;;43.47;13.20;;;9.50;98.30;;;;;;5095393;23;20522;-86
2021/12/13 04:18:25;;;;;;;56.40;12.60;;;9.40;98.30;;;;;;5081357;23;20431;-89
2021/12/13 04:20:44;;;;;;;68.63;15.10;;;9.50;98.30;;;;;;5103770;23;20489;-87
2021/12/13 04:22:51;;;;;;;77.37;14.50;;;9.50;98.30;;;;;;5100957;23;20453;-87
2021/12/13 04:24:59;;;;;;;79.10;16.60;;;9.50;98.30;;;;;;5103452;23;20457;-89
2021/12/13 04:27:20;;;;;;;74.23;15.83;;;9.50;98.30;;;;;;5105812;23;20415;-88
2021/12/13 04:29:26;;;;;;;48.57;15.83;;;9.50;98.30;;;;;;5105223;23;20517;-85
2021/12/13 04:31:46;;;;;;;92.47;17.57;;;9.60;98.30;;;;;;5104823;23;20459;-89
2021/12/13 04:34:09;;;;;;;101.07;18.77;;;9.50;98.30;;;;;;5104657;23;20755;-84
2021/12/13 04:36:38;;;;;;;105.97;19.90;;;9.60;98.30;;;;;;5103919;23;20430;-87
2021/12/13 04:39:01;;;;;;;67.13;18.07;;;9.50;98.30;;;;;;5104713;23;20465;-87
2021/12/13 04:41:10;;;;;;;68.23;17.17;;;9.60;98.30;;;;;;5103154;23;20419;-87
2021/12/13 04:43:24;;;;;;;57.37;15.67;;;9.60;98.30;;;;;;5114390;23;20466;-87
2021/12/13 04:45:34;;;;;;;63.33;15.93;;;9.60;98.30;;;;;;5101316;23;20432;-88
2021/12/13 04:47:48;;;;;;;65.37;16.60;;;9.60;98.30;;;;;;5103760;23;20435;-88
2021/12/13 04:50:06;;;;;;;59.60;15.27;;;9.60;98.30;;;;;;5100621;23;20532;-89
2021/12/13 04:52:13;;;;;;;55.17;15.47;;;9.60;98.30;;;;;;5101502;23;20452;-88
2021/12/13 04:54:16;;;;;;;77.53;17.00;;;9.70;98.30;;;;;;5112622;23;20466;-88
2021/12/13 04:56:29;;;;;;;61.70;16.43;;;9.70;98.30;;;;;;5102301;23;20784;-88
2021/12/13 04:58:45;;;;;;;52.27;16.30;;;9.70;98.30;;;;;;5100175;23;20412;-86
2021/12/13 05:00:59;;;;;;;75.17;17.33;;;9.70;98.30;;;;;;5101787;23;20457;-87
2021/12/13 05:03:06;;;;;;;56.50;15.63;;;9.70;98.30;;;;;;5104260;23;20483;-87
2021/12/13 05:05:19;;;;;;;48.90;15.50;;;9.70;98.30;;;;;;5110387;23;20428;-86
2021/12/13 05:07:29;;;;;;;56.70;15.80;;;9.70;98.30;;;;;;5103781;23;20440;-87
2021/12/13 05:09:34;;;;;;;61.83;16.57;;;9.70;98.30;;;;;;5102110;23;20407;-88
2021/12/13 05:11:41;;;;;;;53.27;14.87;;;9.70;98.30;;;;;;5104495;23;20461;-86
2021/12/13 05:13:58;;;;;;;48.90;17.10;;;9.70;98.30;;;;;;5102034;23;20426;-86
2021/12/13 05:16:12;;;;;;;55.13;14.40;;;9.70;98.30;;;;;;5112139;23;20404;-86
2021/12/13 05:18:30;;;;;;;44.37;13.17;;;9.70;98.30;;;;;;5102338;23;20432;-88
2021/12/13 05:20:44;;;;;;;42.03;11.10;;;9.70;98.30;;;;;;5104419;23;20418;-88
2021/12/13 05:22:57;;;;;;;46.57;14.30;;;9.70;98.30;;;;;;5105058;23;20824;-87
2021/12/13 05:25:05;;;;;;;40.47;12.30;;;9.70;98.30;;;;;;5105376;23;20502;-87
2021/12/13 05:27:13;;;;;;;48.33;11.70;;;9.70;98.30;;;;;;5112517;23;20459;-87
2021/12/13 05:29:33;;;;;;;33.50;12.97;;;9.70;98.30;;;;;;5102677;23;20507;-86
2021/12/13 05:34:36;;;;;;;51.87;15.17;;;9.80;98.30;;;;;;5084633;23;20482;-87
2021/12/13 05:36:55;;;;;;;49.53;14.23;;;9.70;98.30;;;;;;5104177;23;20427;-89
2021/12/13 05:39:26;;;;;;;57.60;15.87;;;9.80;98.30;;;;;;5084852;23;20435;-86
2021/12/13 05:41:30;;;;;;;66.27;16.00;;;9.70;98.30;;;;;;5103013;23;20429;-88
2021/12/13 05:43:38;;;;;;;58.40;16.60;;;9.80;98.30;;;;;;5101171;23;21050;-86
2021/12/13 05:45:46;;;;;;;85.17;16.73;;;9.70;98.30;;;;;;5103988;23;20924;-88
2021/12/13 05:48:03;;;;;;;53.97;16.17;;;9.80;98.30;;;;;;5102978;23;20462;-90
2021/12/13 05:50:10;;;;;;;62.20;15.10;;;9.80;98.30;;;;;;5099072;23;20416;-87
2021/12/13 05:52:33;;;;;;;55.43;17.33;;;9.70;98.30;;;;;;5102835;23;20485;-87
2021/12/13 05:54:51;;;;;;;60.90;15.03;;;9.80;98.30;;;;;;5102077;23;20413;-87
2021/12/13 05:57:11;;;;;;;52.03;15.10;;;9.80;98.30;;;;;;5102587;23;20539;-87
2021/12/13 05:59:19;;;;;;;61.60;17.33;;;9.80;98.30;;;;;;5103046;23;20419;-89
2021/12/13 06:01:25;;;;;;;70.63;17.53;;;9.80;98.30;;;;;;5103808;23;20419;-90
2021/12/13 06:03:36;;;;;;;56.70;15.37;;;9.80;98.30;;;;;;5103048;23;20428;-88
2021/12/13 06:06:10;;;;;;;60.93;16.77;;;9.90;98.30;;;;;;5092890;23;20510;-86
2021/12/13 06:08:22;;;;;;;58.30;17.43;;;9.80;98.30;;;;;;5103750;23;20459;-87
2021/12/13 06:12:51;;;;;;;56.63;14.87;;;9.80;98.30;;;;;;5100049;23;20795;-87
2021/12/13 06:14:57;;;;;;;43.87;14.47;;;9.80;98.30;;;;;;5105598;23;20436;-86
2021/12/13 06:17:09;;;;;;;57.60;15.43;;;9.90;98.30;;;;;;5111904;23;20435;-90
2021/12/13 06:19:22;;;;;;;73.20;17.80;;;9.90;98.30;;;;;;5101876;23;20788;-86
2021/12/13 06:21:50;;;;;;;64.17;16.20;;;9.80;98.30;;;;;;5101864;23;20497;-86
2021/12/13 06:23:55;;;;;;;66.53;17.10;;;9.90;98.30;;;;;;5110755;23;20981;-87
2021/12/13 06:26:14;;;;;;;62.30;14.97;;;9.90;98.30;;;;;;5109397;23;20992;-87
2021/12/13 06:28:24;;;;;;;64.67;17.60;;;9.90;98.30;;;;;;5103066;23;20439;-87
2021/12/13 06:30:35;;;;;;;57.10;15.97;;;9.90;98.30;;;;;;5102301;23;20470;-87
2021/12/13 06:32:42;;;;;;;69.10;16.73;;;9.90;98.30;;;;;;5102022;23;20783;-87
2021/12/13 06:34:45;;;;;;;59.20;16.30;;;9.90;98.30;;;;;;5099112;23;20810;-88
2021/12/13 06:36:52;;;;;;;48.47;15.33;;;9.90;98.30;;;;;;5102579;23;20522;-87
2021/12/13 06:41:42;;;;;;;69.50;16.73;;;9.90;98.30;;;;;;5101283;23;20436;-87
2021/12/13 06:43:51;;;;;;;67.80;18.37;;;9.90;98.30;;;;;;5104643;23;20503;-88
2021/12/13 06:45:57;;;;;;;64.33;16.90;;;9.90;98.30;;;;;;5102389;23;20516;-87
2021/12/13 06:48:04;;;;;;;69.27;16.90;;;9.90;98.30;;;;;;5103785;23;20483;-86
2021/12/13 06:57:26;;;;;;;52.90;16.77;;;10.00;98.30;;;;;;5029881;23;20437;-89
2021/12/13 07:02:25;;;;;;;50.63;15.23;;;9.90;98.30;;;;;;5094307;23;20542;-85
2021/12/13 07:05:11;;;;;;;55.27;13.83;;;10.00;98.30;;;;;;5076687;23;20424;-85
2021/12/13 07:07:16;;;;;;;51.57;14.57;;;10.00;98.30;;;;;;5109716;23;20750;-87
2021/12/13 07:09:22;;;;;;;47.73;14.30;;;10.00;98.30;;;;;;5101684;23;20798;-88
2021/12/13 07:11:25;;;;;;;44.70;15.03;;;9.90;98.30;;;;;;5098887;23;20439;-88
2021/12/13 07:13:42;;;;;;;46.80;13.10;;;10.00;98.30;;;;;;5107261;23;20796;-88
2021/12/13 07:15:58;;;;;;;51.77;13.67;;;10.00;98.30;;;;;;5108592;23;20483;-88
2021/12/13 07:18:18;;;;;;;38.33;12.70;;;10.00;98.30;;;;;;5100030;23;20419;-89
2021/12/13 07:20:20;;;;;;;32.30;12.60;;;10.00;98.30;;;;;;5100084;23;20435;-89
2021/12/13 07:22:30;;;;;;;37.40;12.73;;;10.00;98.30;;;;;;5110040;23;20464;-86
2021/12/13 07:24:42;;;;;;;35.23;12.00;;;10.00;98.30;;;;;;5101128;23;20433;-89
2021/12/13 07:26:55;;;;;;;33.43;11.17;;;10.00;98.30;;;;;;5101463;23;20440;-85
2021/12/13 07:29:19;;;;;;;46.67;13.57;;;10.00;98.30;;;;;;5100365;23;20520;-86
2021/12/13 07:32:11;;;;;;;33.00;11.40;;;10.00;98.30;;;;;;5102828;23;20451;-87
2021/12/13 07:34:17;;;;;;;37.67;12.10;;;10.00;98.30;;;;;;5102106;23;20423;-89
2021/12/13 07:36:24;;;;;;;38.63;12.53;;;10.00;98.30;;;;;;5109020;23;20411;-86
2021/12/13 07:38:49;;;;;;;;;;;;;;;;;;;;;
2021/12/13 07:41:05;;;;;;;36.67;11.57;;;10.10;98.30;;;;;;5099515;23;20425;-89
2021/12/13 07:43:27;;;;;;;26.27;10.53;;;10.00;98.30;;;;;;5102582;23;20469;-86
2021/12/13 07:48:34;;;;;;;28.53;10.50;;;10.00;98.30;;;;;;5090345;23;20433;-90
2021/12/13 07:51:06;;;;;;;32.17;12.20;;;10.00;98.30;;;;;;5101530;23;20481;-87
2021/12/13 07:53:16;;;;;;;32.87;11.73;;;10.00;98.30;;;;;;5108160;23;20458;-90
2021/12/13 07:55:26;;;;;;;33.90;12.33;;;10.00;98.30;;;;;;5099242;23;20416;-89
2021/12/13 07:57:33;;;;;;;37.60;12.17;;;10.10;98.30;;;;;;5096566;23;20412;-82
2021/12/13 07:59:38;;;;;;;27.67;10.90;;;10.10;98.30;;;;;;5096489;23;20909;-85
2021/12/13 08:01:46;;;;;;;31.80;12.30;;;10.00;98.30;;;;;;5095372;23;20454;-85
2021/12/13 08:03:56;;;;;;;25.30;11.80;;;10.00;98.30;;;;;;5103794;23;20415;-85
2021/12/13 08:06:08;;;;;;;31.07;12.27;;;10.00;98.30;;;;;;5095466;23;20432;-85
2021/12/13 08:08:19;;;;;;;33.30;12.33;;;10.10;98.30;;;;;;5103465;23;20431;-84
2021/12/13 08:10:29;;;;;;;30.60;12.87;;;10.10;98.30;;;;;;5103645;23;20858;-85
2021/12/13 08:12:38;;;;;;;27.37;10.30;;;10.00;98.30;;;;;;5094521;23;20459;-84
2021/12/13 08:14:43;;;;;;;27.30;13.03;;;10.10;98.30;;;;;;5097585;23;20435;-84
2021/12/13 08:16:49;;;;;;;35.97;12.83;;;10.10;98.30;;;;;;5097245;23;20419;-84
2021/12/13 08:19:06;;;;;;;28.17;13.20;;;10.00;98.30;;;;;;5098111;23;20507;-83
2021/12/13 08:21:20;;;;;;;35.53;13.53;;;10.10;98.30;;;;;;5106487;23;20972;-84
2021/12/13 08:23:26;;;;;;;29.27;12.37;;;10.10;98.30;;;;;;5107210;23;20443;-84
2021/12/13 08:25:39;;;;;;;32.20;11.70;;;10.10;98.30;;;;;;5106344;23;20957;-85
2021/12/13 08:27:48;;;;;;;36.93;12.63;;;10.10;98.30;;;;;;5097233;23;20411;-85
2021/12/13 08:30:03;;;;;;;33.17;12.50;;;10.10;98.30;;;;;;5105001;23;20434;-84
2021/12/13 08:32:12;;;;;;;33.70;12.40;;;10.10;98.30;;;;;;5106019;23;20503;-85
2021/12/13 08:34:23;;;;;;;37.90;13.30;;;10.10;98.30;;;;;;5097360;23;20415;-83
2021/12/13 08:36:33;;;;;;;31.63;14.00;;;10.10;98.30;;;;;;5103814;23;20424;-83
2021/12/13 08:38:42;;;;;;;36.07;15.00;;;10.10;98.30;;;;;;5105891;23;20468;-84
2021/12/13 08:40:56;;;;;;;37.50;14.30;;;10.10;98.30;;;;;;5106844;23;20423;-84
2021/12/13 08:43:02;;;;;;;29.70;13.33;;;10.10;98.30;;;;;;5109892;23;20444;-84
2021/12/13 08:45:16;;;;;;;32.20;14.13;;;10.10;98.30;;;;;;5096918;23;20504;-84
2021/12/13 08:47:24;;;;;;;32.07;14.57;;;10.10;98.30;;;;;;5105816;23;20454;-86
2021/12/13 08:49:38;;;;;;;39.03;15.60;;;10.10;98.30;;;;;;5105763;23;20420;-85
2021/12/13 08:52:05;;;;;;;33.00;14.90;;;10.10;98.30;;;;;;5105249;23;20430;-84
2021/12/13 08:54:12;;;;;;;36.40;15.50;;;10.10;98.30;;;;;;5104341;23;20423;-81
2021/12/13 08:56:21;;;;;;;45.47;20.58;;;10.20;98.30;;;;;;5097103;23;20432;-87
2021/12/13 08:58:24;;;;;;;38.30;17.37;;;10.10;98.30;;;;;;5104884;23;20192;-84
2021/12/13 09:00:51;;;;;;;42.87;16.20;;;10.10;98.30;;;;;;5107679;23;20490;-82
2021/12/13 09:02:59;;;;;;;41.03;16.83;;;10.10;98.30;;;;;;5084033;23;20558;-86
2021/12/13 09:05:08;;;;;;;40.03;17.57;;;10.20;98.30;;;;;;5098228;23;20501;-86
2021/12/13 09:07:15;;;;;;;43.97;18.20;;;10.20;98.30;;;;;;5105376;23;20448;-86
2021/12/13 09:09:21;;;;;;;44.00;19.97;;;10.20;98.30;;;;;;5107517;23;20468;-91
2021/12/13 09:11:31;;;;;;;45.20;18.57;;;10.20;98.30;;;;;;5105037;23;20842;-85
2021/12/13 09:13:39;;;;;;;49.23;20.43;;;10.20;98.30;;;;;;5103176;23;20430;-82
2021/12/13 09:15:43;;;;;;;45.00;18.03;;;10.20;98.30;;;;;;5102840;23;20732;-82
2021/12/13 09:17:50;;;;;;;44.70;18.50;;;10.20;98.30;;;;;;5101810;23;20423;-83
2021/12/13 09:19:57;;;;;;;51.10;19.33;;;10.20;98.30;;;;;;5100757;23;20431;-82
2021/12/13 09:22:05;;;;;;;44.30;19.37;;;10.20;98.30;;;;;;5102708;23;20440;-83
2021/12/13 09:24:10;;;;;;;44.03;17.63;;;10.20;98.30;;;;;;5102678;23;20425;-82
2021/12/13 09:26:15;;;;;;;36.73;18.80;;;10.20;98.30;;;;;;5101557;23;20444;-82
2021/12/13 09:28:23;;;;;;;46.03;19.10;;;10.20;98.30;;;;;;5100515;23;20952;-82
2021/12/13 09:30:42;;;;;;;40.73;17.33;;;10.30;98.30;;;;;;5101751;23;20733;-82
2021/12/13 09:32:49;;;;;;;47.10;19.70;;;10.30;98.30;;;;;;5101506;23;20563;-82
2021/12/13 09:34:56;;;;;;;44.13;18.80;;;10.20;98.30;;;;;;5101988;23;20427;-82
2021/12/13 09:36:59;;;;;;;48.97;20.73;;;10.30;98.30;;;;;;5100799;23;20428;-80
2021/12/13 09:39:06;;;;;;;50.47;19.13;;;10.30;98.30;;;;;;5102427;23;20512;-82
2021/12/13 09:41:27;;;;;;;49.83;20.10;;;10.30;98.30;;;;;;5093172;23;20512;-82
2021/12/13 09:43:54;;;;;;;46.57;20.23;;;10.20;98.30;;;;;;5101683;23;20436;-82
2021/12/13 09:45:59;;;;;;;52.27;21.53;;;10.30;98.30;;;;;;5089446;23;20520;-82
2021/12/13 09:48:16;;;;;;;49.23;20.33;;;10.30;98.30;;;;;;5102483;23;20521;-83
2021/12/13 09:50:22;;;;;;;49.53;18.27;;;10.30;98.30;;;;;;5101912;23;20491;-82
2021/12/13 09:52:36;;;;;;;51.00;20.17;;;10.30;98.30;;;;;;5093105;23;21099;-84
2021/12/13 09:54:44;;;;;;;45.60;19.93;;;10.30;98.30;;;;;;5100634;23;20907;-82
2021/12/13 09:56:51;;;;;;;48.70;20.00;;;10.30;98.30;;;;;;5101787;23;20409;-83
2021/12/13 09:59:02;;;;;;;55.17;19.47;;;10.30;98.30;;;;;;5101677;23;20432;-81
2021/12/13 10:01:08;;;;;;;49.97;19.83;;;10.30;98.30;;;;;;5103215;23;20467;-82
2021/12/13 10:03:16;;;;;;;47.47;18.27;;;10.30;98.30;;;;;;5103216;23;20479;-82
2021/12/13 10:05:26;;;;;;;47.57;19.43;;;10.30;98.30;;;;;;5105182;23;20728;-82
2021/12/13 10:07:32;;;;;;;59.53;19.80;;;10.30;98.30;;;;;;5100362;23;20538;-81
2021/12/13 10:09:40;;;;;;;44.73;17.30;;;10.30;98.30;;;;;;5100318;23;20428;-83
2021/12/13 10:11:50;;;;;;;45.87;18.00;;;10.30;98.30;;;;;;5092176;23;20431;-80
2021/12/13 10:13:55;;;;;;;48.83;19.27;;;10.30;98.30;;;;;;5100848;23;20994;-83
2021/12/13 10:16:02;;;;;;;46.83;18.03;;;10.30;98.30;;;;;;5100632;23;20427;-81
2021/12/13 10:18:08;;;;;;;43.10;17.27;;;10.30;98.30;;;;;;5100813;23;20421;-81
2021/12/13 10:20:15;;;;;;;42.50;16.93;;;10.40;98.30;;;;;;5105613;23;20470;-83
2021/12/13 10:22:21;;;;;;;36.20;16.87;;;10.30;98.30;;;;;;5106324;23;20437;-83
2021/12/13 10:24:27;;;;;;;44.20;18.23;;;10.30;98.30;;;;;;5107838;23;20430;-83
2021/12/13 10:26:35;;;;;;;46.27;18.37;;;10.30;98.30;;;;;;5105920;23;20431;-83
2021/12/13 10:28:44;;;;;;;46.87;19.20;;;10.40;98.30;;;;;;5104299;23;20511;-83
2021/12/13 10:30:52;;;;;;;36.97;16.50;;;10.40;98.30;;;;;;5106864;23;20510;-82
2021/12/13 10:32:55;;;;;;;39.60;22.88;;;10.40;98.30;;;;;;5093587;23;20447;-81
2021/12/13 10:35:02;;;;;;;39.43;18.63;;;10.40;98.30;;;;;;5093760;23;20437;-82
2021/12/13 10:37:08;;;;;;;34.50;16.30;;;10.40;98.30;;;;;;5101810;23;21134;-82
2021/12/13 10:39:17;;;;;;;40.20;17.57;;;10.40;98.30;;;;;;5099777;23;20433;-82
2021/12/13 10:41:41;;;;;;;35.23;16.37;;;10.50;98.30;;;;;;5100802;23;20433;-83
2021/12/13 10:43:47;;;;;;;34.43;16.17;;;10.50;98.30;;;;;;5100447;23;20732;-82
2021/12/13 10:45:56;;;;;;;31.43;14.83;;;10.50;98.30;;;;;;5091976;23;20418;-82
2021/12/13 10:48:06;;;;;;;32.97;14.40;;;10.50;98.30;;;;;;5100979;23;20447;-82
2021/12/13 10:50:13;;;;;;;37.97;16.03;;;10.50;98.30;;;;;;5101807;23;20429;-83
2021/12/13 10:52:21;;;;;;;33.77;16.23;;;10.50;98.30;;;;;;5103039;23;20456;-83
2021/12/13 10:54:30;;;;;;;32.10;13.90;;;10.50;98.30;;;;;;5101983;23;20412;-84
2021/12/13 10:56:37;;;;;;;32.97;15.57;;;10.50;98.30;;;;;;5102052;23;20435;-83
2021/12/13 10:58:45;;;;;;;28.50;15.17;;;10.60;98.30;;;;;;5101385;23;20439;-82
2021/12/13 11:00:53;;;;;;;31.63;15.40;;;10.60;98.30;;;;;;5102715;23;20413;-83
2021/12/13 11:03:01;;;;;;;29.07;13.70;;;10.60;98.30;;;;;;5100774;23;20449;-82
2021/12/13 11:05:09;;;;;;;28.43;12.67;;;10.60;98.30;;;;;;5100643;23;20490;-82
2021/12/13 11:07:13;;;;;;;29.00;14.93;;;10.60;98.30;;;;;;5093719;23;20799;-82
2021/12/13 11:09:20;;;;;;;22.50;12.73;;;10.70;98.30;;;;;;5105303;23;20427;-83
2021/12/13 11:11:29;;;;;;;23.03;13.50;;;10.70;98.30;;;;;;5107829;23;20421;-83
2021/12/13 11:13:37;;;;;;;24.90;11.63;;;10.70;98.30;;;;;;5102732;23;20493;-83
2021/12/13 11:15:42;;;;;;;24.10;12.50;;;10.70;98.30;;;;;;5102887;23;20420;-82
2021/12/13 11:17:48;;;;;;;22.03;11.80;;;10.60;98.30;;;;;;5103906;23;20435;-80
2021/12/13 11:19:55;;;;;;;22.93;12.53;;;10.70;98.30;;;;;;5100444;23;20796;-83
2021/12/13 11:22:03;;;;;;;17.57;11.27;;;10.60;98.30;;;;;;5100603;23;20456;-82
2021/12/13 11:24:09;;;;;;;18.93;10.10;;;10.60;98.30;;;;;;5099914;23;20468;-82
2021/12/13 11:26:17;;;;;;;20.80;12.03;;;10.50;98.30;;;;;;5099256;23;20402;-82
2021/12/13 11:28:20;;;;;;;19.60;10.97;;;10.50;98.30;;;;;;5100455;23;21197;-83
2021/12/13 11:30:26;;;;;;;20.67;11.57;;;10.50;98.30;;;;;;5102423;23;20516;-83
2021/12/13 11:33:02;;;;;;;16.10;9.60;;;10.50;98.30;;;;;;5093585;23;20463;-83
2021/12/13 11:35:40;;;;;;;16.53;9.90;;;10.50;98.30;;;;;;5095570;23;20438;-82
2021/12/13 11:38:00;;;;;;;17.50;10.40;;;10.50;98.30;;;;;;5046475;23;20787;-82
2021/12/13 11:40:20;;;;;;;15.20;10.00;;;10.40;98.30;;;;;;5102462;23;20402;-83
2021/12/13 11:42:49;;;;;;;18.07;10.93;;;10.40;98.30;;;;;;5102386;23;20445;-83
2021/12/13 11:45:41;;;;;;;19.23;11.30;;;10.40;98.30;;;;;;5102492;23;20897;-83
2021/12/13 11:48:05;;;;;;;18.07;11.70;;;10.40;98.30;;;;;;5026725;23;20464;-83
2021/12/13 11:50:47;;;;;;;17.40;10.80;;;10.40;98.30;;;;;;5026751;23;20435;-83
2021/12/13 11:53:15;;;;;;;18.60;10.57;;;10.40;98.30;;;;;;5050904;23;20460;-82